Time;durP1;ratioP1;P1;durP2;ratioP2;P2;SDS_P1;SDS_P2;PMS_P1;PMS_P2;Temp;Humidity;BMP_temperature;BMP_pressure;BME280_temperature;BME280_humidity;BME280_pressure;Samples;Min_cycle;Max_cycle;Signal;HPM_P1;HPM_P2
2021/11/26 00:02:13;;;;;;;0.30;0.10;;;;;;;;;;5053665;28;20290;-66
2021/11/26 00:04:38;;;;;;;0.57;0.10;;;;;;;;;;5054157;28;20032;-66
2021/11/26 00:07:04;;;;;;;1.05;0.32;;;;;;;;;;5054033;28;20319;-66
2021/11/26 00:09:29;;;;;;;0.63;0.20;;;;;;;;;;5053503;28;20092;-66
2021/11/26 00:11:54;;;;;;;0.75;0.25;;;;;;;;;;5053645;28;20509;-66
2021/11/26 00:14:26;;;;;;;1.40;0.25;;;;;;;;;;5053887;28;20312;-66
2021/11/26 00:16:57;;;;;;;0.98;0.10;;;;;;;;;;5054335;28;20013;-66
2021/11/26 00:19:22;;;;;;;0.70;0.10;;;;;;;;;;5053832;28;20017;-66
2021/11/26 00:21:47;;;;;;;0.65;0.10;;;;;;;;;;5053613;28;20021;-65
2021/11/26 00:24:13;;;;;;;0.20;0.10;;;;;;;;;;5053877;28;20029;-66
2021/11/26 00:26:38;;;;;;;0.57;0.38;;;;;;;;;;5053715;28;20645;-66
2021/11/26 00:29:04;;;;;;;0.85;0.20;;;;;;;;;;5053649;28;20035;-66
2021/11/26 00:31:29;;;;;;;0.20;0.20;;;;;;;;;;5053566;28;20056;-66
2021/11/26 00:33:54;;;;;;;0.93;0.10;;;;;;;;;;5052313;28;20033;-67
2021/11/26 00:36:19;;;;;;;0.53;0.20;;;;;;;;;;5053500;28;20782;-66
2021/11/26 00:38:44;;;;;;;0.80;0.10;;;;;;;;;;5053412;28;20254;-66
2021/11/26 00:41:10;;;;;;;0.53;0.20;;;;;;;;;;5053150;28;20246;-66
2021/11/26 00:43:35;;;;;;;0.28;0.20;;;;;;;;;;5053571;28;20272;-66
2021/11/26 00:46:00;;;;;;;0.80;0.20;;;;;;;;;;5053267;28;20021;-67
2021/11/26 00:48:25;;;;;;;0.68;0.28;;;;;;;;;;5053525;28;20478;-66
2021/11/26 00:50:51;;;;;;;1.13;0.30;;;;;;;;;;5053370;28;20013;-66
2021/11/26 00:53:16;;;;;;;1.00;0.22;;;;;;;;;;5052966;28;20031;-66
2021/11/26 00:55:41;;;;;;;0.20;0.20;;;;;;;;;;5053096;28;20369;-66
2021/11/26 00:58:07;;;;;;;0.70;0.15;;;;;;;;;;5052866;28;20254;-65
2021/11/26 01:00:32;;;;;;;1.25;0.32;;;;;;;;;;5053150;28;20021;-65
2021/11/26 01:02:57;;;;;;;0.88;0.20;;;;;;;;;;5052805;28;20033;-66
2021/11/26 01:05:23;;;;;;;0.52;0.17;;;;;;;;;;5052929;28;20021;-66
2021/11/26 01:07:48;;;;;;;1.43;0.27;;;;;;;;;;5052965;28;20020;-66
2021/11/26 01:10:15;;;;;;;0.70;0.20;;;;;;;;;;5052638;28;20621;-66
2021/11/26 01:12:40;;;;;;;0.45;0.20;;;;;;;;;;5052720;28;20029;-66
2021/11/26 01:15:07;;;;;;;0.38;0.20;;;;;;;;;;5052571;28;20500;-66
2021/11/26 01:17:32;;;;;;;1.25;0.30;;;;;;;;;;5052666;28;20107;-66
2021/11/26 01:19:57;;;;;;;0.77;0.10;;;;;;;;;;5052749;28;20116;-67
2021/11/26 01:22:23;;;;;;;0.43;0.20;;;;;;;;;;5051098;28;20017;-66
2021/11/26 01:24:48;;;;;;;0.80;0.40;;;;;;;;;;5052770;28;20246;-66
2021/11/26 01:27:13;;;;;;;1.17;0.30;;;;;;;;;;5052445;28;20280;-66
2021/11/26 01:29:38;;;;;;;0.85;0.13;;;;;;;;;;5052654;28;20017;-66
2021/11/26 01:32:04;;;;;;;1.17;0.22;;;;;;;;;;5051091;28;20376;-66
2021/11/26 01:34:29;;;;;;;0.32;0.20;;;;;;;;;;5052667;28;20099;-66
2021/11/26 01:36:54;;;;;;;0.38;0.20;;;;;;;;;;5051263;28;20066;-66
2021/11/26 01:39:20;;;;;;;0.73;0.03;;;;;;;;;;5051027;28;20025;-66
2021/11/26 01:41:45;;;;;;;1.07;0.47;;;;;;;;;;5052374;28;20728;-67
2021/11/26 01:44:10;;;;;;;1.80;0.63;;;;;;;;;;5052177;28;20260;-66
2021/11/26 01:46:43;;;;;;;0.25;0.10;;;;;;;;;;5052382;28;20104;-66
2021/11/26 01:49:08;;;;;;;0.35;0.20;;;;;;;;;;5050846;28;20021;-66
2021/11/26 01:51:34;;;;;;;0.80;0.10;;;;;;;;;;5052287;28;20036;-66
2021/11/26 01:53:59;;;;;;;0.67;0.10;;;;;;;;;;5052298;28;20487;-67
2021/11/26 01:56:25;;;;;;;0.60;0.20;;;;;;;;;;5052731;28;20365;-67
2021/11/26 01:58:50;;;;;;;0.45;0.10;;;;;;;;;;5052295;28;20033;-66
2021/11/26 02:01:16;;;;;;;0.50;0.30;;;;;;;;;;5057045;22;20008;-66
2021/11/26 02:03:41;;;;;;;0.68;0.30;;;;;;;;;;5032357;28;20033;-66
2021/11/26 02:06:06;;;;;;;1.30;0.30;;;;;;;;;;5032039;28;20024;-67
2021/11/26 02:08:31;;;;;;;0.35;0.35;;;;;;;;;;5032569;28;20243;-67
2021/11/26 02:10:56;;;;;;;0.40;0.30;;;;;;;;;;5032512;28;20022;-66
2021/11/26 02:13:22;;;;;;;1.50;0.20;;;;;;;;;;5032121;28;20381;-67
2021/11/26 02:15:48;;;;;;;0.97;0.20;;;;;;;;;;5032119;28;20029;-66
2021/11/26 02:18:15;;;;;;;0.30;0.17;;;;;;;;;;5031935;28;20673;-66
2021/11/26 02:20:40;;;;;;;0.50;0.10;;;;;;;;;;5032254;28;20101;-66
2021/11/26 02:23:06;;;;;;;0.73;0.10;;;;;;;;;;5031829;28;20438;-66
2021/11/26 02:25:31;;;;;;;0.82;0.10;;;;;;;;;;5031955;28;20014;-66
2021/11/26 02:27:59;;;;;;;0.52;0.30;;;;;;;;;;5031895;28;20472;-66
2021/11/26 02:30:25;;;;;;;0.20;0.00;;;;;;;;;;5031971;28;20010;-66
2021/11/26 02:32:52;;;;;;;0.73;0.10;;;;;;;;;;5032097;28;20440;-66
2021/11/26 02:35:17;;;;;;;0.65;0.22;;;;;;;;;;5035757;28;20101;-66
2021/11/26 02:37:42;;;;;;;0.83;0.20;;;;;;;;;;5035782;28;20104;-66
2021/11/26 02:40:08;;;;;;;0.98;0.20;;;;;;;;;;5051255;28;20349;-66
2021/11/26 02:42:35;;;;;;;0.35;0.10;;;;;;;;;;5055710;28;20063;-66
2021/11/26 02:45:00;;;;;;;0.17;0.10;;;;;;;;;;5055668;28;20025;-66
2021/11/26 02:47:25;;;;;;;0.40;0.10;;;;;;;;;;5055535;28;20095;-67
2021/11/26 02:49:50;;;;;;;1.23;0.40;;;;;;;;;;5055572;28;20254;-66
2021/11/26 02:52:15;;;;;;;0.30;0.20;;;;;;;;;;5055428;28;20307;-66
2021/11/26 02:54:41;;;;;;;0.67;0.27;;;;;;;;;;5054276;28;20253;-66
2021/11/26 02:57:06;;;;;;;0.35;0.13;;;;;;;;;;5055321;28;20246;-66
2021/11/26 02:59:31;;;;;;;0.25;0.15;;;;;;;;;;5055187;28;20100;-66
2021/11/26 03:01:56;;;;;;;0.60;0.33;;;;;;;;;;5055053;28;20392;-67
2021/11/26 03:04:21;;;;;;;0.30;0.10;;;;;;;;;;5055501;28;20248;-66
2021/11/26 03:06:47;;;;;;;0.73;0.10;;;;;;;;;;5055385;28;20025;-66
2021/11/26 03:09:12;;;;;;;0.33;0.20;;;;;;;;;;5055081;28;20526;-66
2021/11/26 03:11:37;;;;;;;0.10;0.10;;;;;;;;;;5055122;28;20250;-66
2021/11/26 03:14:02;;;;;;;0.80;0.20;;;;;;;;;;5055333;28;20674;-67
2021/11/26 03:16:27;;;;;;;1.52;0.10;;;;;;;;;;5054924;28;20254;-66
2021/11/26 03:18:53;;;;;;;0.25;0.10;;;;;;;;;;5055010;28;20420;-66
2021/11/26 03:21:18;;;;;;;0.17;0.10;;;;;;;;;;5054857;28;20025;-66
2021/11/26 03:23:43;;;;;;;0.37;0.10;;;;;;;;;;5035707;28;20278;-66
2021/11/26 03:26:08;;;;;;;0.80;0.30;;;;;;;;;;5033867;28;20332;-67
2021/11/26 03:28:33;;;;;;;0.23;0.10;;;;;;;;;;5035030;28;20255;-66
2021/11/26 03:30:58;;;;;;;0.55;0.13;;;;;;;;;;5034792;28;20273;-65
2021/11/26 03:33:24;;;;;;;0.55;0.10;;;;;;;;;;5034889;28;20029;-66
2021/11/26 03:35:49;;;;;;;0.95;0.10;;;;;;;;;;5034660;28;20029;-66
2021/11/26 03:38:14;;;;;;;0.57;0.10;;;;;;;;;;5033847;28;20338;-66
2021/11/26 03:40:40;;;;;;;0.68;0.20;;;;;;;;;;5045699;28;20025;-66
2021/11/26 03:43:06;;;;;;;0.30;0.13;;;;;;;;;;5033603;28;20025;-66
2021/11/26 03:45:31;;;;;;;0.20;0.08;;;;;;;;;;5033480;28;20022;-66
2021/11/26 03:47:57;;;;;;;0.67;0.17;;;;;;;;;;5033563;28;20026;-66
2021/11/26 03:50:23;;;;;;;1.02;0.10;;;;;;;;;;5033408;28;20247;-66
2021/11/26 03:52:48;;;;;;;0.73;0.20;;;;;;;;;;5034330;28;20106;-66
2021/11/26 03:55:16;;;;;;;0.60;0.00;;;;;;;;;;5034068;28;20090;-67
2021/11/26 03:57:41;;;;;;;0.70;0.13;;;;;;;;;;5034210;28;20329;-67
2021/11/26 04:00:07;;;;;;;1.80;0.20;;;;;;;;;;5034100;28;20104;-66
2021/11/26 04:02:33;;;;;;;0.60;0.17;;;;;;;;;;5033504;28;20078;-66
2021/11/26 04:04:58;;;;;;;0.20;0.10;;;;;;;;;;5033266;28;20033;-66
2021/11/26 04:07:23;;;;;;;0.20;0.10;;;;;;;;;;5033245;28;20034;-66
2021/11/26 04:09:48;;;;;;;1.30;0.30;;;;;;;;;;5033174;28;20032;-67
2021/11/26 04:12:14;;;;;;;0.67;0.23;;;;;;;;;;5033077;28;20279;-66
2021/11/26 04:14:40;;;;;;;0.57;0.10;;;;;;;;;;5032970;28;20037;-66
2021/11/26 04:17:07;;;;;;;0.63;0.20;;;;;;;;;;5032874;28;20025;-66
2021/11/26 04:19:32;;;;;;;0.35;0.00;;;;;;;;;;5032870;28;20036;-66
2021/11/26 04:21:57;;;;;;;0.40;0.10;;;;;;;;;;5032783;28;20037;-67
2021/11/26 04:24:22;;;;;;;0.30;0.13;;;;;;;;;;5033091;28;20781;-66
2021/11/26 04:26:47;;;;;;;0.77;0.20;;;;;;;;;;5032818;28;20255;-66
2021/11/26 04:29:13;;;;;;;0.37;0.20;;;;;;;;;;5032915;28;20274;-66
2021/11/26 04:31:41;;;;;;;1.05;0.10;;;;;;;;;;5031898;28;20342;-66
2021/11/26 04:34:06;;;;;;;0.22;0.20;;;;;;;;;;5032624;28;20029;-66
2021/11/26 04:36:32;;;;;;;0.32;0.10;;;;;;;;;;5031322;28;20033;-67
2021/11/26 04:38:57;;;;;;;0.98;0.17;;;;;;;;;;5038711;28;20029;-67
2021/11/26 04:41:22;;;;;;;0.40;0.10;;;;;;;;;;5035890;28;20071;-66
2021/11/26 04:43:47;;;;;;;0.45;0.20;;;;;;;;;;5032277;28;20535;-66
2021/11/26 04:46:12;;;;;;;0.40;0.20;;;;;;;;;;5032552;28;20057;-66
2021/11/26 04:48:37;;;;;;;0.30;0.10;;;;;;;;;;5033045;28;20254;-66
2021/11/26 04:51:03;;;;;;;0.70;0.10;;;;;;;;;;5032932;28;20365;-66
2021/11/26 04:53:28;;;;;;;0.87;0.20;;;;;;;;;;5032925;28;20044;-67
2021/11/26 04:55:53;;;;;;;0.32;0.00;;;;;;;;;;5032680;28;20251;-66
2021/11/26 04:58:18;;;;;;;1.40;0.20;;;;;;;;;;5031521;28;20025;-66
2021/11/26 05:00:44;;;;;;;1.33;0.10;;;;;;;;;;5033036;28;20337;-66
2021/11/26 05:03:09;;;;;;;1.20;0.10;;;;;;;;;;5032550;28;20128;-67
2021/11/26 05:05:35;;;;;;;0.32;0.10;;;;;;;;;;5032973;28;20013;-67
2021/11/26 05:08:00;;;;;;;0.65;0.13;;;;;;;;;;5032461;28;20025;-67
2021/11/26 05:10:26;;;;;;;0.20;0.08;;;;;;;;;;5032401;28;20014;-66
2021/11/26 05:12:55;;;;;;;1.00;0.10;;;;;;;;;;5031438;28;20116;-66
2021/11/26 05:15:25;;;;;;;0.05;0.05;;;;;;;;;;5033011;28;20021;-66
2021/11/26 05:17:51;;;;;;;0.10;0.00;;;;;;;;;;5032023;28;20025;-65
2021/11/26 05:20:17;;;;;;;1.48;0.30;;;;;;;;;;5032922;28;20100;-66
2021/11/26 05:22:42;;;;;;;1.05;0.13;;;;;;;;;;5031860;28;20113;-66
2021/11/26 05:25:07;;;;;;;0.70;0.30;;;;;;;;;;5032622;28;20345;-66
2021/11/26 05:27:32;;;;;;;0.50;0.13;;;;;;;;;;5031688;28;20275;-66
2021/11/26 05:29:58;;;;;;;0.67;0.10;;;;;;;;;;5031756;28;20068;-66
2021/11/26 05:32:23;;;;;;;0.40;0.10;;;;;;;;;;5030323;28;20321;-66
2021/11/26 05:34:48;;;;;;;1.23;0.10;;;;;;;;;;5031730;28;20276;-66
2021/11/26 05:37:13;;;;;;;1.30;0.10;;;;;;;;;;5032319;28;20262;-66
2021/11/26 05:39:38;;;;;;;0.37;0.10;;;;;;;;;;5043379;28;20079;-66
2021/11/26 05:42:04;;;;;;;0.30;0.00;;;;;;;;;;5032673;28;20621;-66
2021/11/26 05:44:29;;;;;;;0.45;0.00;;;;;;;;;;5031570;28;20032;-66
2021/11/26 05:46:54;;;;;;;0.10;0.10;;;;;;;;;;5031389;28;20100;-66
2021/11/26 05:49:19;;;;;;;0.33;0.10;;;;;;;;;;5032126;28;20476;-66
2021/11/26 05:51:44;;;;;;;0.20;0.10;;;;;;;;;;5031504;28;20393;-66
2021/11/26 05:54:09;;;;;;;0.10;0.10;;;;;;;;;;5031535;28;20061;-66
2021/11/26 05:56:35;;;;;;;0.40;0.10;;;;;;;;;;5031594;28;20759;-65
2021/11/26 05:59:00;;;;;;;0.28;0.10;;;;;;;;;;5031262;28;20274;-66
2021/11/26 06:01:25;;;;;;;2.03;0.28;;;;;;;;;;5031109;28;20036;-66
2021/11/26 06:03:50;;;;;;;0.27;0.13;;;;;;;;;;5031105;28;20040;-66
2021/11/26 06:06:15;;;;;;;0.10;0.00;;;;;;;;;;5029645;28;20284;-66
2021/11/26 06:08:40;;;;;;;0.10;0.07;;;;;;;;;;5034272;28;20274;-66
2021/11/26 06:11:06;;;;;;;0.98;0.10;;;;;;;;;;5035317;28;20305;-66
2021/11/26 06:13:31;;;;;;;1.30;0.20;;;;;;;;;;5036387;28;20036;-65
2021/11/26 06:15:56;;;;;;;0.45;0.08;;;;;;;;;;5035376;28;20279;-66
2021/11/26 06:18:21;;;;;;;0.65;0.10;;;;;;;;;;5035119;28;20076;-66
2021/11/26 06:20:46;;;;;;;0.53;0.10;;;;;;;;;;5035269;28;20075;-66
2021/11/26 06:23:12;;;;;;;0.10;0.00;;;;;;;;;;5034846;28;20371;-65
2021/11/26 06:25:37;;;;;;;0.30;0.10;;;;;;;;;;5035141;28;20029;-66
2021/11/26 06:28:02;;;;;;;0.70;0.10;;;;;;;;;;5035104;28;20021;-65
2021/11/26 06:30:28;;;;;;;0.43;0.05;;;;;;;;;;5035233;28;20021;-66
2021/11/26 06:32:53;;;;;;;0.28;0.10;;;;;;;;;;5034449;28;20032;-66
2021/11/26 06:35:20;;;;;;;0.68;0.10;;;;;;;;;;5033742;28;20475;-65
2021/11/26 06:37:46;;;;;;;1.20;0.10;;;;;;;;;;5034618;28;20563;-66
2021/11/26 06:40:11;;;;;;;0.70;0.20;;;;;;;;;;5033759;28;20116;-65
2021/11/26 06:42:37;;;;;;;0.43;0.00;;;;;;;;;;5035052;28;20029;-66
2021/11/26 06:45:03;;;;;;;0.10;0.10;;;;;;;;;;5033826;28;20052;-66
2021/11/26 06:47:28;;;;;;;0.30;0.00;;;;;;;;;;5034514;28;20021;-66
2021/11/26 06:49:53;;;;;;;0.40;0.13;;;;;;;;;;5035136;28;20016;-65
2021/11/26 06:52:19;;;;;;;0.22;0.00;;;;;;;;;;5034705;28;20680;-66
2021/11/26 06:54:44;;;;;;;0.10;0.00;;;;;;;;;;5034360;28;20033;-66
2021/11/26 06:57:09;;;;;;;0.43;0.00;;;;;;;;;;5033231;28;20024;-66
2021/11/26 06:59:34;;;;;;;0.52;0.20;;;;;;;;;;5033806;28;20032;-66
2021/11/26 07:02:00;;;;;;;0.47;0.30;;;;;;;;;;5031886;28;20076;-66
2021/11/26 07:04:25;;;;;;;0.10;0.00;;;;;;;;;;5033749;28;20255;-65
2021/11/26 07:06:50;;;;;;;1.20;0.10;;;;;;;;;;5033054;28;20086;-66
2021/11/26 07:09:15;;;;;;;1.37;0.20;;;;;;;;;;5033114;28;20535;-65
2021/11/26 07:11:40;;;;;;;0.20;0.10;;;;;;;;;;5030419;28;20298;-65
2021/11/26 07:14:05;;;;;;;0.38;0.10;;;;;;;;;;5031394;28;20061;-65
2021/11/26 07:16:31;;;;;;;0.00;0.00;;;;;;;;;;5034964;28;20519;-65
2021/11/26 07:18:56;;;;;;;0.40;0.17;;;;;;;;;;5033074;28;20460;-66
2021/11/26 07:21:21;;;;;;;1.02;0.30;;;;;;;;;;5031712;28;20436;-66
2021/11/26 07:23:46;;;;;;;0.60;0.10;;;;;;;;;;5032914;28;20056;-65
2021/11/26 07:26:12;;;;;;;0.75;0.10;;;;;;;;;;5033891;28;20057;-65
2021/11/26 07:28:37;;;;;;;0.90;0.03;;;;;;;;;;5033675;28;20446;-65
2021/11/26 07:31:02;;;;;;;1.55;0.15;;;;;;;;;;5036916;28;20013;-65
2021/11/26 07:33:28;;;;;;;1.38;0.60;;;;;;;;;;5035830;28;20040;-66
2021/11/26 07:35:53;;;;;;;0.45;0.10;;;;;;;;;;5043666;28;20018;-65
2021/11/26 07:38:18;;;;;;;0.30;0.17;;;;;;;;;;5047183;28;20024;-66
2021/11/26 07:40:43;;;;;;;1.50;0.37;;;;;;;;;;5053927;28;20025;-65
2021/11/26 07:43:08;;;;;;;0.55;0.10;;;;;;;;;;5053554;28;20021;-65
2021/11/26 07:45:34;;;;;;;0.75;0.20;;;;;;;;;;5032170;28;20037;-65
2021/11/26 07:47:59;;;;;;;1.02;0.10;;;;;;;;;;5040904;28;20021;-65
2021/11/26 07:50:24;;;;;;;0.60;0.13;;;;;;;;;;5053316;28;20048;-66
2021/11/26 07:52:50;;;;;;;0.53;0.07;;;;;;;;;;5034568;28;20017;-65
2021/11/26 07:55:15;;;;;;;0.10;0.10;;;;;;;;;;5034072;28;20740;-65
2021/11/26 07:57:40;;;;;;;0.22;0.00;;;;;;;;;;5034003;28;20254;-65
2021/11/26 08:00:06;;;;;;;0.65;0.10;;;;;;;;;;5041055;28;20016;-66
2021/11/26 08:02:32;;;;;;;0.30;0.10;;;;;;;;;;5048300;28;20474;-65
2021/11/26 08:04:57;;;;;;;2.53;0.20;;;;;;;;;;5037448;28;20028;-65
2021/11/26 08:07:22;;;;;;;0.10;0.10;;;;;;;;;;5048081;28;20024;-65
2021/11/26 08:09:47;;;;;;;0.43;0.10;;;;;;;;;;5032664;28;20385;-65
2021/11/26 08:12:12;;;;;;;1.42;0.10;;;;;;;;;;5033178;28;20022;-66
2021/11/26 08:14:37;;;;;;;1.90;0.75;;;;;;;;;;5032717;28;20029;-65
2021/11/26 08:17:03;;;;;;;0.03;0.00;;;;;;;;;;5033140;28;20025;-65
2021/11/26 08:19:28;;;;;;;0.10;0.10;;;;;;;;;;5033411;28;20263;-65
2021/11/26 08:21:54;;;;;;;0.43;0.10;;;;;;;;;;5032053;28;20429;-65
2021/11/26 08:24:20;;;;;;;0.10;0.00;;;;;;;;;;5032345;28;20028;-65
2021/11/26 08:26:45;;;;;;;0.90;0.10;;;;;;;;;;5032243;28;20017;-64
2021/11/26 08:29:11;;;;;;;1.17;0.10;;;;;;;;;;5032460;28;20028;-65
2021/11/26 08:31:37;;;;;;;0.10;0.10;;;;;;;;;;5031220;28;20381;-65
2021/11/26 08:34:03;;;;;;;0.40;0.10;;;;;;;;;;5032282;28;20048;-65
2021/11/26 08:36:28;;;;;;;0.63;0.10;;;;;;;;;;5032556;28;20186;-64
2021/11/26 08:38:54;;;;;;;0.20;0.10;;;;;;;;;;5033813;28;20025;-66
2021/11/26 08:41:19;;;;;;;0.22;0.10;;;;;;;;;;5032713;28;20263;-65
2021/11/26 08:43:44;;;;;;;0.43;0.10;;;;;;;;;;5032462;28;20037;-64
2021/11/26 08:46:09;;;;;;;0.20;0.10;;;;;;;;;;5031609;28;20265;-65
2021/11/26 08:48:34;;;;;;;0.52;0.05;;;;;;;;;;5033037;28;20281;-64
2021/11/26 08:51:00;;;;;;;0.57;0.10;;;;;;;;;;5032025;28;20048;-64
2021/11/26 08:53:25;;;;;;;1.20;0.20;;;;;;;;;;5030745;28;20596;-65
2021/11/26 08:55:53;;;;;;;1.10;0.43;;;;;;;;;;5032838;28;20324;-64
2021/11/26 08:58:18;;;;;;;0.50;0.10;;;;;;;;;;5032941;28;20021;-64
2021/11/26 09:00:44;;;;;;;1.42;0.10;;;;;;;;;;5032050;28;20036;-64
2021/11/26 09:03:09;;;;;;;0.43;0.10;;;;;;;;;;5032324;28;20041;-64
2021/11/26 09:05:35;;;;;;;0.50;0.13;;;;;;;;;;5037613;28;20456;-64
2021/11/26 09:08:02;;;;;;;1.48;0.20;;;;;;;;;;5031839;28;20039;-64
2021/11/26 09:10:32;;;;;;;0.45;0.15;;;;;;;;;;5035491;28;20495;-64
2021/11/26 09:12:58;;;;;;;0.82;0.20;;;;;;;;;;5034039;28;20030;-64
2021/11/26 09:15:23;;;;;;;0.30;0.20;;;;;;;;;;5037988;28;20028;-64
2021/11/26 09:17:48;;;;;;;0.70;0.05;;;;;;;;;;5032848;28;20116;-64
2021/11/26 09:20:14;;;;;;;0.77;0.20;;;;;;;;;;5032556;28;20076;-64
2021/11/26 09:22:39;;;;;;;0.03;0.00;;;;;;;;;;5032760;28;20026;-64
2021/11/26 09:25:05;;;;;;;0.10;0.00;;;;;;;;;;5032675;28;20107;-64
2021/11/26 09:27:30;;;;;;;0.57;0.10;;;;;;;;;;5032658;28;20036;-65
2021/11/26 09:29:55;;;;;;;1.08;0.15;;;;;;;;;;5031803;28;20021;-65
2021/11/26 09:32:21;;;;;;;0.40;0.10;;;;;;;;;;5032384;28;20024;-65
2021/11/26 09:34:46;;;;;;;1.48;0.55;;;;;;;;;;5032131;28;20084;-65
2021/11/26 09:37:11;;;;;;;0.97;0.10;;;;;;;;;;5032074;28;20468;-65
2021/11/26 09:39:36;;;;;;;0.93;0.25;;;;;;;;;;5043865;28;20341;-65
2021/11/26 09:42:02;;;;;;;1.13;0.20;;;;;;;;;;5042004;28;20465;-65
2021/11/26 09:44:32;;;;;;;1.70;0.13;;;;;;;;;;5032238;28;20021;-65
2021/11/26 09:46:57;;;;;;;2.08;0.30;;;;;;;;;;5032291;28;20465;-64
2021/11/26 09:49:22;;;;;;;0.50;0.00;;;;;;;;;;5032287;28;20036;-64
2021/11/26 09:51:48;;;;;;;0.70;0.05;;;;;;;;;;5032304;28;20259;-65
2021/11/26 09:54:14;;;;;;;1.20;0.00;;;;;;;;;;5031999;28;20033;-65
2021/11/26 09:56:39;;;;;;;0.35;0.00;;;;;;;;;;5032692;28;20029;-65
2021/11/26 09:59:04;;;;;;;0.98;0.15;;;;;;;;;;5035531;28;20032;-65
2021/11/26 10:01:30;;;;;;;0.38;0.00;;;;;;;;;;5041615;28;20037;-65
2021/11/26 10:03:55;;;;;;;0.30;0.00;;;;;;;;;;5032274;28;20037;-66
2021/11/26 10:06:40;;;;;;;0.38;0.13;;;;;;;;;;5032165;28;20049;-65
2021/11/26 10:09:05;;;;;;;0.28;0.10;;;;;;;;;;5038811;28;20024;-65
2021/11/26 10:11:32;;;;;;;0.20;0.10;;;;;;;;;;5032708;28;20014;-65
2021/11/26 10:13:58;;;;;;;0.55;0.10;;;;;;;;;;5031676;28;20032;-65
2021/11/26 10:16:24;;;;;;;0.45;0.10;;;;;;;;;;5030553;28;20476;-64
2021/11/26 10:18:50;;;;;;;0.30;0.10;;;;;;;;;;5032062;28;20033;-65
2021/11/26 10:21:15;;;;;;;2.00;0.50;;;;;;;;;;5031822;28;20101;-66
2021/11/26 10:23:42;;;;;;;0.55;0.10;;;;;;;;;;5030153;28;20036;-65
2021/11/26 10:26:15;;;;;;;0.35;0.20;;;;;;;;;;5031717;28;20380;-66
2021/11/26 10:28:42;;;;;;;0.55;0.20;;;;;;;;;;5046650;28;20514;-65
2021/11/26 10:31:16;;;;;;;0.55;0.20;;;;;;;;;;5051783;28;20031;-66
2021/11/26 10:33:41;;;;;;;0.32;0.10;;;;;;;;;;5039437;28;20021;-66
2021/11/26 10:36:06;;;;;;;0.63;0.20;;;;;;;;;;5051652;28;20021;-65
2021/11/26 10:38:35;;;;;;;0.70;0.52;;;;;;;;;;5040607;28;20400;-65
2021/11/26 10:41:05;;;;;;;1.23;0.17;;;;;;;;;;5050028;28;20099;-64
2021/11/26 10:43:57;;;;;;;1.27;0.20;;;;;;;;;;5036541;28;20037;-65
2021/11/26 10:47:07;;;;;;;0.20;0.10;;;;;;;;;;5031125;28;20033;-65
2021/11/26 10:49:30;;;;;;;1.33;0.20;;;;;;;;;;5025999;28;20063;-65
2021/11/26 10:59:47;;;;;;;0.50;0.10;;;;;;;;;;5035669;28;20017;-65
2021/11/26 11:02:23;;;;;;;1.17;0.17;;;;;;;;;;5034976;28;20034;-65
2021/11/26 11:04:48;;;;;;;0.10;0.10;;;;;;;;;;5035508;28;20029;-65
2021/11/26 11:07:14;;;;;;;0.25;0.10;;;;;;;;;;5034977;28;20573;-65
2021/11/26 11:09:40;;;;;;;0.50;0.20;;;;;;;;;;5035309;28;20062;-65
2021/11/26 11:12:06;;;;;;;0.60;0.10;;;;;;;;;;5034779;28;20096;-65
2021/11/26 11:14:31;;;;;;;0.22;0.10;;;;;;;;;;5035068;28;20155;-66
2021/11/26 11:16:56;;;;;;;0.35;0.17;;;;;;;;;;5035091;28;20108;-65
2021/11/26 11:19:22;;;;;;;0.30;0.00;;;;;;;;;;5035095;28;20032;-65
2021/11/26 11:21:48;;;;;;;0.90;0.10;;;;;;;;;;5035066;28;20029;-65
2021/11/26 11:24:15;;;;;;;0.38;0.08;;;;;;;;;;5034523;28;20487;-65
2021/11/26 11:26:45;;;;;;;1.10;0.30;;;;;;;;;;5034974;28;20009;-65
2021/11/26 11:29:10;;;;;;;0.55;0.30;;;;;;;;;;5034688;28;20017;-66
2021/11/26 11:31:38;;;;;;;0.60;0.10;;;;;;;;;;5034760;28;20032;-65
2021/11/26 11:34:03;;;;;;;0.32;0.10;;;;;;;;;;5034816;28;20021;-65
2021/11/26 11:36:32;;;;;;;0.57;0.20;;;;;;;;;;5034715;28;20418;-65
2021/11/26 11:39:00;;;;;;;1.00;0.20;;;;;;;;;;5038707;28;20659;-65
2021/11/26 11:41:25;;;;;;;0.30;0.10;;;;;;;;;;5045693;28;20029;-65
2021/11/26 11:43:51;;;;;;;0.70;0.40;;;;;;;;;;5034110;28;20112;-65
2021/11/26 11:46:17;;;;;;;0.73;0.05;;;;;;;;;;5034245;28;20021;-65
2021/11/26 11:48:48;;;;;;;1.08;0.20;;;;;;;;;;5034316;28;20092;-65
2021/11/26 11:51:20;;;;;;;0.45;0.10;;;;;;;;;;5014532;28;20128;-65
2021/11/26 11:53:45;;;;;;;1.08;0.20;;;;;;;;;;5014639;28;20477;-65
2021/11/26 11:56:15;;;;;;;0.80;0.25;;;;;;;;;;5014372;28;20057;-65
2021/11/26 11:58:43;;;;;;;0.70;0.17;;;;;;;;;;5014502;28;20476;-65
2021/11/26 12:01:15;;;;;;;0.40;0.10;;;;;;;;;;5014197;28;20033;-65
2021/11/26 12:03:40;;;;;;;1.13;0.10;;;;;;;;;;5014257;28;20396;-65
2021/11/26 12:06:05;;;;;;;0.45;0.00;;;;;;;;;;5013895;28;20101;-65
2021/11/26 12:08:31;;;;;;;0.35;0.10;;;;;;;;;;5014352;28;20026;-65
2021/11/26 12:10:57;;;;;;;0.15;0.10;;;;;;;;;;5014310;28;20022;-65
2021/11/26 12:13:28;;;;;;;1.30;0.30;;;;;;;;;;5014255;28;20457;-65
2021/11/26 12:16:05;;;;;;;0.30;0.10;;;;;;;;;;5014179;28;20025;-65
2021/11/26 12:18:37;;;;;;;0.93;0.10;;;;;;;;;;5014221;28;20489;-65
2021/11/26 12:21:02;;;;;;;0.43;0.22;;;;;;;;;;5014002;28;20018;-65
2021/11/26 12:23:33;;;;;;;0.20;0.10;;;;;;;;;;5014084;28;20040;-65
2021/11/26 12:28:48;;;;;;;0.75;0.10;;;;;;;;;;5014337;28;20068;-65
2021/11/26 12:31:13;;;;;;;0.20;0.10;;;;;;;;;;5014067;28;20021;-65
2021/11/26 12:33:39;;;;;;;1.30;0.40;;;;;;;;;;5030268;28;20068;-65
2021/11/26 12:36:13;;;;;;;0.20;0.13;;;;;;;;;;5030838;28;20030;-66
2021/11/26 12:38:48;;;;;;;0.45;0.00;;;;;;;;;;5033261;28;20075;-65
2021/11/26 12:41:25;;;;;;;0.85;0.20;;;;;;;;;;5030931;28;20042;-65
2021/11/26 12:43:51;;;;;;;0.20;0.00;;;;;;;;;;5026404;28;20072;-65
2021/11/26 12:46:19;;;;;;;0.20;0.10;;;;;;;;;;5032889;28;20045;-65
2021/11/26 12:49:04;;;;;;;1.23;0.30;;;;;;;;;;5032993;28;20052;-65
2021/11/26 12:51:36;;;;;;;0.65;0.10;;;;;;;;;;5031036;28;20662;-66
2021/11/26 12:54:05;;;;;;;0.55;0.00;;;;;;;;;;5032220;28;20072;-65
2021/11/26 12:56:31;;;;;;;0.25;0.10;;;;;;;;;;5032788;28;20419;-65
2021/11/26 12:58:56;;;;;;;0.50;0.10;;;;;;;;;;5032987;28;20025;-65
2021/11/26 13:01:21;;;;;;;0.45;0.17;;;;;;;;;;5032327;28;20049;-64
2021/11/26 13:03:47;;;;;;;1.37;0.30;;;;;;;;;;5032833;28;20022;-64
2021/11/26 13:06:13;;;;;;;1.17;0.20;;;;;;;;;;5031430;28;20828;-64
2021/11/26 13:08:40;;;;;;;0.73;0.30;;;;;;;;;;5032845;28;20113;-64
2021/11/26 13:11:06;;;;;;;1.45;0.15;;;;;;;;;;5032729;28;20105;-63
2021/11/26 13:13:36;;;;;;;0.47;0.10;;;;;;;;;;5032754;28;20055;-64
2021/11/26 13:16:02;;;;;;;1.10;0.30;;;;;;;;;;5031437;28;20551;-64
2021/11/26 13:18:28;;;;;;;1.15;0.05;;;;;;;;;;5031915;28;20100;-65
2021/11/26 13:20:55;;;;;;;0.68;0.10;;;;;;;;;;5032642;28;20021;-65
2021/11/26 13:23:22;;;;;;;0.32;0.20;;;;;;;;;;5032499;28;20072;-64
2021/11/26 13:25:49;;;;;;;1.35;0.30;;;;;;;;;;5032610;28;20010;-64
2021/11/26 13:28:16;;;;;;;0.10;0.05;;;;;;;;;;5032043;28;20468;-64
2021/11/26 13:30:42;;;;;;;0.32;0.00;;;;;;;;;;5034725;28;20033;-64
2021/11/26 13:33:17;;;;;;;0.43;0.10;;;;;;;;;;5041025;28;20104;-64
2021/11/26 13:35:44;;;;;;;0.60;0.10;;;;;;;;;;5052224;28;20020;-65
2021/11/26 13:38:11;;;;;;;0.75;0.20;;;;;;;;;;5033921;28;20072;-65
2021/11/26 13:40:41;;;;;;;0.47;0.10;;;;;;;;;;5032343;28;20017;-64
2021/11/26 13:43:06;;;;;;;1.02;0.10;;;;;;;;;;5032279;28;20049;-64
2021/11/26 13:45:33;;;;;;;0.30;0.25;;;;;;;;;;5032277;28;20461;-64
2021/11/26 13:47:58;;;;;;;0.55;0.10;;;;;;;;;;5032359;28;20052;-65
2021/11/26 13:50:24;;;;;;;1.20;0.20;;;;;;;;;;5032000;28;20103;-65
2021/11/26 13:52:49;;;;;;;1.25;0.22;;;;;;;;;;5032208;28;20132;-64
2021/11/26 13:55:17;;;;;;;0.00;0.00;;;;;;;;;;5032096;28;20061;-65
2021/11/26 13:57:42;;;;;;;0.57;0.10;;;;;;;;;;5032191;28;20017;-64
2021/11/26 14:00:12;;;;;;;0.97;0.30;;;;;;;;;;5031993;28;20031;-65
2021/11/26 14:02:55;;;;;;;0.85;0.10;;;;;;;;;;5031427;28;20322;-65
2021/11/26 14:05:48;;;;;;;1.33;0.10;;;;;;;;;;5031413;28;20480;-66
2021/11/26 14:08:14;;;;;;;0.73;0.10;;;;;;;;;;5010343;28;20042;-64
2021/11/26 14:10:48;;;;;;;0.47;0.10;;;;;;;;;;5012309;28;20018;-65
2021/11/26 14:13:13;;;;;;;;;;;;;;;;;;5011118;28;20390;-64
2021/11/26 14:15:38;;;;;;;0.88;0.10;;;;;;;;;;5011289;28;20289;-65
2021/11/26 14:18:11;;;;;;;0.80;0.15;;;;;;;;;;5016150;28;20040;-64
2021/11/26 14:20:39;;;;;;;0.68;0.08;;;;;;;;;;5032167;28;20180;-64
2021/11/26 14:23:08;;;;;;;0.57;0.13;;;;;;;;;;5031693;28;20260;-65
2021/11/26 14:25:33;;;;;;;0.50;0.10;;;;;;;;;;5031989;28;20101;-64
2021/11/26 14:28:09;;;;;;;1.57;0.13;;;;;;;;;;5031856;28;20060;-64
2021/11/26 14:30:34;;;;;;;1.50;0.10;;;;;;;;;;5034738;28;20083;-64
2021/11/26 14:33:00;;;;;;;0.93;0.10;;;;;;;;;;5035828;28;20469;-64
2021/11/26 14:35:30;;;;;;;0.30;0.10;;;;;;;;;;5035705;28;20285;-64
2021/11/26 14:38:04;;;;;;;0.90;0.10;;;;;;;;;;5036042;28;20252;-65
2021/11/26 14:40:30;;;;;;;0.43;0.20;;;;;;;;;;5054321;28;20033;-65
2021/11/26 14:43:10;;;;;;;0.40;0.10;;;;;;;;;;5055891;28;20480;-64
2021/11/26 14:45:37;;;;;;;0.95;0.10;;;;;;;;;;5055347;28;20017;-65
2021/11/26 14:48:19;;;;;;;0.50;0.10;;;;;;;;;;5055712;28;20013;-64
2021/11/26 14:50:44;;;;;;;0.43;0.10;;;;;;;;;;5055518;28;20059;-64